Time;durP1;ratioP1;P1;durP2;ratioP2;P2;SDS_P1;SDS_P2;PMS_P1;PMS_P2;Temp;Humidity;BMP_temperature;BMP_pressure;BME280_temperature;BME280_humidity;BME280_pressure;Samples;Min_cycle;Max_cycle;Signal;HPM_P1;HPM_P2
2023/04/08 00:02:06;;;;;;;11.60;10.53;;;;;;;6.20;100.00;102496.66;5013452;28;20972;-46
2023/04/08 00:04:34;;;;;;;12.60;11.50;;;;;;;6.22;100.00;102497.34;5010425;28;20469;-48
2023/04/08 00:07:02;;;;;;;13.50;12.20;;;;;;;6.25;100.00;102494.44;5013826;28;20467;-46
2023/04/08 00:09:31;;;;;;;13.17;11.87;;;;;;;6.25;100.00;102490.94;5013477;28;20433;-45
2023/04/08 00:12:00;;;;;;;12.77;11.60;;;;;;;6.20;100.00;102498.44;5013890;28;20418;-49
2023/04/08 00:14:27;;;;;;;12.50;11.50;;;;;;;6.15;100.00;102493.53;5012881;28;20488;-52
2023/04/08 00:16:55;;;;;;;13.87;12.60;;;;;;;6.18;100.00;102500.38;5013356;28;20521;-47
2023/04/08 00:19:24;;;;;;;13.33;12.07;;;;;;;6.23;100.00;102499.03;5013504;28;20876;-47
2023/04/08 00:21:51;;;;;;;13.17;12.03;;;;;;;6.25;100.00;102499.75;5013201;28;20477;-46
2023/04/08 00:24:19;;;;;;;13.50;12.20;;;;;;;6.31;100.00;102503.69;5012795;28;20460;-49
2023/04/08 00:26:48;;;;;;;13.23;12.00;;;;;;;6.25;100.00;102491.78;5013069;28;20459;-51
2023/04/08 00:29:16;;;;;;;12.47;11.37;;;;;;;6.20;100.00;102490.50;5013197;28;20440;-46
2023/04/08 00:31:43;;;;;;;12.97;11.67;;;;;;;6.17;100.00;102488.94;5013185;28;20433;-49
2023/04/08 00:34:11;;;;;;;13.77;12.57;;;;;;;6.24;100.00;102490.13;5012608;28;20472;-47
2023/04/08 00:36:39;;;;;;;14.17;11.77;;;;;;;6.26;100.00;102488.19;5012928;28;20449;-47
2023/04/08 00:39:06;;;;;;;12.97;11.13;;;;;;;6.16;100.00;102479.31;5013056;28;20441;-44
2023/04/08 00:41:35;;;;;;;11.40;10.40;;;;;;;6.19;100.00;102481.69;5013018;28;20437;-45
2023/04/08 00:44:04;;;;;;;13.27;11.97;;;;;;;6.24;100.00;102486.63;5012564;28;20465;-49
2023/04/08 00:46:36;;;;;;;11.77;10.70;;;;;;;6.25;100.00;102483.00;5013157;28;20775;-48
2023/04/08 00:49:04;;;;;;;11.03;10.23;;;;;;;6.20;100.00;102483.41;5012661;28;20455;-49
2023/04/08 00:51:31;;;;;;;9.73;9.03;;;;;;;6.17;100.00;102478.34;5012993;28;20405;-52
2023/04/08 00:54:00;;;;;;;10.97;10.00;;;;;;;6.20;100.00;102483.41;5012289;28;20469;-50
2023/04/08 00:56:28;;;;;;;11.10;10.30;;;;;;;6.19;100.00;102487.00;5012866;28;20799;-49
2023/04/08 00:58:55;;;;;;;10.60;9.80;;;;;;;6.15;100.00;102482.09;5012969;28;20441;-47
2023/04/08 01:01:32;;;;;;;10.87;9.80;;;;;;;6.11;100.00;102469.09;5012713;28;20432;-49
2023/04/08 01:04:08;;;;;;;10.57;9.77;;;;;;;6.19;100.00;102478.22;5010816;28;20499;-46
2023/04/08 01:06:45;;;;;;;11.33;10.13;;;;;;;6.14;100.00;102483.91;5012978;28;20499;-49
2023/04/08 01:09:13;;;;;;;9.90;9.20;;;;;;;6.10;100.00;102490.41;5012894;28;20425;-46
2023/04/08 01:11:44;;;;;;;10.93;9.97;;;;;;;6.09;100.00;102492.19;5012625;28;20441;-44
2023/04/08 01:14:17;;;;;;;9.40;8.80;;;;;;;6.04;100.00;102483.81;5012047;28;20499;-46
2023/04/08 01:16:47;;;;;;;9.50;8.60;;;;;;;6.10;100.00;102487.75;5012192;28;20445;-45
2023/04/08 01:19:24;;;;;;;10.53;9.70;;;;;;;6.12;100.00;102491.94;5012530;28;20847;-49
2023/04/08 01:21:53;;;;;;;9.83;9.13;;;;;;;6.11;100.00;102492.94;5012366;28;20495;-47
2023/04/08 01:24:28;;;;;;;10.50;9.60;;;;;;;6.17;100.00;102481.00;5011914;28;20461;-46
2023/04/08 01:26:58;;;;;;;9.40;8.77;;;;;;;6.20;100.00;102485.19;5012246;28;20448;-45
2023/04/08 01:29:26;;;;;;;9.87;9.10;;;;;;;6.17;100.00;102482.81;5012210;28;20866;-43
2023/04/08 01:31:56;;;;;;;9.27;8.67;;;;;;;6.18;100.00;102495.94;5012273;28;20484;-46
2023/04/08 01:34:26;;;;;;;8.80;8.30;;;;;;;6.13;100.00;102483.06;5011889;28;20984;-45
2023/04/08 01:36:55;;;;;;;9.63;8.80;;;;;;;6.07;100.00;102491.50;5011941;28;20448;-48
2023/04/08 01:39:25;;;;;;;9.87;9.07;;;;;;;6.07;100.00;102488.00;5012098;28;20433;-45
2023/04/08 01:41:56;;;;;;;9.63;8.83;;;;;;;6.04;100.00;102499.69;5011862;28;20432;-47
2023/04/08 01:44:26;;;;;;;11.73;9.17;;;;;;;6.11;100.00;102489.44;5011369;28;20475;-46
2023/04/08 01:46:56;;;;;;;9.53;8.73;;;;;;;6.11;100.00;102490.28;5012191;28;20457;-44
2023/04/08 01:49:25;;;;;;;9.87;9.00;;;;;;;6.12;100.00;102486.66;5012094;28;20452;-45
2023/04/08 01:51:55;;;;;;;12.50;9.20;;;;;;;6.09;100.00;102486.91;5011743;28;20441;-46
2023/04/08 01:54:22;;;;;;;10.20;9.30;;;;;;;6.09;100.00;102491.38;5011280;28;21001;-44
2023/04/08 01:56:52;;;;;;;10.47;9.83;;;;;;;6.17;100.00;102481.00;5012060;28;20453;-46
2023/04/08 01:59:23;;;;;;;10.40;9.40;;;;;;;6.11;100.00;102484.16;5012082;28;20444;-45
2023/04/08 02:01:53;;;;;;;10.37;9.47;;;;;;;6.13;100.00;102482.22;5012645;28;20432;-47
2023/04/08 02:04:21;;;;;;;9.83;9.10;;;;;;;6.15;100.00;102490.88;5015264;28;20469;-50
2023/04/08 02:06:50;;;;;;;11.77;10.87;;;;;;;6.12;100.00;102484.00;5015703;28;20449;-44
2023/04/08 02:09:17;;;;;;;10.40;9.70;;;;;;;6.17;100.00;102488.94;5015751;28;20447;-46
2023/04/08 02:11:45;;;;;;;11.03;10.13;;;;;;;6.15;100.00;102480.28;5015595;28;20441;-46
2023/04/08 02:14:13;;;;;;;10.23;9.30;;;;;;;6.13;100.00;102479.56;5015309;28;20464;-48
2023/04/08 02:16:46;;;;;;;12.87;9.50;;;;;;;6.19;100.00;102483.50;5015638;28;21029;-47
2023/04/08 02:19:20;;;;;;;10.47;9.67;;;;;;;6.19;100.00;102478.22;5015995;28;20456;-46
2023/04/08 02:21:52;;;;;;;9.60;8.90;;;;;;;6.17;100.00;102481.00;5015633;28;20444;-46
2023/04/08 02:24:21;;;;;;;10.40;9.60;;;;;;;6.18;100.00;102490.63;5015055;28;20469;-47
2023/04/08 02:26:51;;;;;;;10.87;10.00;;;;;;;6.20;100.00;102485.19;5015566;28;20463;-44
2023/04/08 02:29:19;;;;;;;10.83;9.90;;;;;;;6.17;100.00;102485.44;5015546;28;20436;-46
2023/04/08 02:31:48;;;;;;;10.20;9.50;;;;;;;6.18;100.00;102492.44;5015258;28;20443;-46
2023/04/08 02:34:18;;;;;;;11.30;10.30;;;;;;;6.22;100.00;102493.84;5012861;28;20535;-45
2023/04/08 02:36:46;;;;;;;11.80;10.40;;;;;;;6.27;100.00;102494.34;5015365;28;20461;-44
2023/04/08 02:39:14;;;;;;;11.40;10.60;;;;;;;6.30;100.00;102494.91;5015267;28;20425;-49
2023/04/08 02:41:42;;;;;;;10.87;10.07;;;;;;;6.25;100.00;102490.94;5015178;28;20776;-52
2023/04/08 02:44:10;;;;;;;11.67;10.60;;;;;;;6.28;100.00;102483.59;5014698;28;20477;-44
2023/04/08 02:46:37;;;;;;;11.80;10.70;;;;;;;6.26;100.00;102495.28;5015271;28;20449;-47
2023/04/08 02:49:05;;;;;;;11.00;10.30;;;;;;;6.22;100.00;102497.34;5015135;28;20535;-48
2023/04/08 02:51:34;;;;;;;11.87;10.97;;;;;;;6.24;100.00;102489.28;5015005;28;20435;-50
2023/04/08 02:54:02;;;;;;;11.63;10.73;;;;;;;6.17;100.00;102493.41;5014582;28;20468;-45
2023/04/08 02:56:30;;;;;;;12.07;11.17;;;;;;;6.24;100.00;102497.25;5015431;28;20413;-46
2023/04/08 02:58:57;;;;;;;11.73;10.90;;;;;;;6.26;100.00;102496.13;5014779;28;20437;-51
2023/04/08 03:01:25;;;;;;;11.77;11.07;;;;;;;6.25;100.00;102493.59;5014834;28;20433;-46
2023/04/08 03:03:52;;;;;;;12.40;11.40;;;;;;;6.26;100.00;102504.09;5011247;28;20473;-48
2023/04/08 03:06:20;;;;;;;12.33;11.30;;;;;;;6.18;100.00;102503.88;5014931;28;20425;-47
2023/04/08 03:08:50;;;;;;;12.47;11.47;;;;;;;6.23;100.00;102504.34;5014804;28;20433;-47
2023/04/08 03:11:18;;;;;;;13.33;12.07;;;;;;;6.26;100.00;102506.75;5014869;28;20425;-43
2023/04/08 03:13:46;;;;;;;14.60;12.93;;;;;;;6.27;100.00;102502.28;5013489;28;20449;-50
2023/04/08 03:16:13;;;;;;;13.17;11.93;;;;;;;6.23;100.00;102504.34;5014834;28;20524;-51
2023/04/08 03:18:41;;;;;;;13.20;12.10;;;;;;;6.26;100.00;102505.88;5014697;28;20449;-50
2023/04/08 03:21:08;;;;;;;15.00;13.70;;;;;;;6.26;100.00;102505.88;5014620;28;20436;-48
2023/04/08 03:23:36;;;;;;;14.73;13.53;;;;;;;6.22;100.00;102501.81;5013878;28;20559;-49
2023/04/08 03:26:05;;;;;;;13.87;12.80;;;;;;;6.24;100.00;102499.88;5014271;28;20437;-46
2023/04/08 03:28:33;;;;;;;14.90;13.63;;;;;;;6.26;100.00;102508.53;5014152;28;20584;-47
2023/04/08 03:31:00;;;;;;;14.10;12.90;;;;;;;6.23;100.00;102507.00;5014432;28;20527;-46
2023/04/08 03:33:28;;;;;;;16.50;14.80;;;;;;;6.22;100.00;102500.00;5012183;28;21002;-48
2023/04/08 03:35:56;;;;;;;17.73;16.00;;;;;;;6.19;100.00;102510.84;5014351;28;20437;-49
2023/04/08 03:38:24;;;;;;;16.47;14.87;;;;;;;6.12;100.00;102510.50;5014527;28;20461;-47
2023/04/08 03:40:51;;;;;;;16.80;14.50;;;;;;;6.10;100.00;102501.84;5014309;28;20842;-51
2023/04/08 03:43:20;;;;;;;17.50;15.90;;;;;;;6.07;100.00;102507.38;5013394;28;21034;-49
2023/04/08 03:45:48;;;;;;;17.00;15.50;;;;;;;6.12;100.00;102499.09;5014066;28;20922;-46
2023/04/08 03:48:16;;;;;;;17.13;15.53;;;;;;;6.15;100.00;102511.22;5013985;28;20943;-48
2023/04/08 03:50:44;;;;;;;16.73;15.40;;;;;;;6.11;100.00;102514.13;5013857;28;20440;-46
2023/04/08 03:53:11;;;;;;;17.43;15.63;;;;;;;6.16;100.00;102510.25;5013326;28;20842;-46
2023/04/08 03:55:39;;;;;;;18.00;16.10;;;;;;;6.11;100.00;102508.00;5014204;28;20994;-45
2023/04/08 03:58:07;;;;;;;16.87;15.30;;;;;;;6.10;100.00;102517.72;5014078;28;20793;-46
2023/04/08 04:00:36;;;;;;;17.50;15.70;;;;;;;6.11;100.00;102515.94;5013971;28;20432;-48
2023/04/08 04:03:04;;;;;;;17.70;15.90;;;;;;;6.05;100.00;102527.03;5011599;28;20467;-50
2023/04/08 04:05:32;;;;;;;17.13;15.57;;;;;;;6.05;100.00;102532.31;5013856;28;20826;-46
2023/04/08 04:08:00;;;;;;;17.03;15.60;;;;;;;6.09;100.00;102521.34;5013800;28;20457;-48
2023/04/08 04:10:27;;;;;;;22.17;19.83;;;;;;;6.06;100.00;102526.88;5013711;28;20434;-46
2023/04/08 04:12:55;;;;;;;19.60;17.70;;;;;;;6.05;100.00;102519.94;5013440;28;20799;-46
2023/04/08 04:15:23;;;;;;;17.63;16.03;;;;;;;6.01;100.00;102530.88;5013033;28;20488;-49
2023/04/08 04:17:52;;;;;;;19.10;17.43;;;;;;;6.02;100.00;102532.56;5013342;28;20489;-48
2023/04/08 04:20:20;;;;;;;19.77;17.77;;;;;;;6.04;100.00;102522.69;5013450;28;20536;-48
2023/04/08 04:22:48;;;;;;;20.30;18.60;;;;;;;5.99;100.00;102520.41;5013420;28;20516;-48
2023/04/08 04:25:16;;;;;;;18.97;17.37;;;;;;;6.03;100.00;102526.31;5011904;28;20485;-48
2023/04/08 04:27:43;;;;;;;20.83;19.03;;;;;;;6.01;100.00;102536.16;5013264;28;20460;-48
2023/04/08 04:30:14;;;;;;;20.23;18.50;;;;;;;5.97;100.00;102548.81;5013026;28;20480;-50
2023/04/08 04:32:42;;;;;;;21.80;19.00;;;;;;;5.98;100.00;102534.63;5013169;28;20480;-46
2023/04/08 04:35:11;;;;;;;20.60;18.90;;;;;;;5.97;100.00;102529.47;5012842;28;20512;-46
2023/04/08 04:37:39;;;;;;;20.70;18.87;;;;;;;5.95;100.00;102545.44;5013259;28;20463;-47
2023/04/08 04:40:08;;;;;;;19.37;17.40;;;;;;;5.94;100.00;102535.00;5013033;28;20440;-46
2023/04/08 04:42:35;;;;;;;20.30;18.40;;;;;;;5.91;100.00;102541.34;5012925;28;20429;-47
2023/04/08 04:45:04;;;;;;;21.23;19.20;;;;;;;5.96;100.00;102546.28;5012069;28;20843;-48
2023/04/08 04:47:31;;;;;;;21.37;19.27;;;;;;;5.98;100.00;102547.00;5013092;28;20453;-48
2023/04/08 04:49:59;;;;;;;20.50;18.70;;;;;;;5.99;100.00;102543.41;5012747;28;20453;-47
2023/04/08 04:52:29;;;;;;;25.43;22.40;;;;;;;6.05;100.00;102556.16;5011981;28;20452;-44
2023/04/08 04:54:57;;;;;;;27.33;24.47;;;;;;;6.02;100.00;102557.25;5008935;28;20534;-45
2023/04/08 04:57:25;;;;;;;22.23;20.10;;;;;;;6.05;100.00;102551.69;5012725;28;20453;-53
2023/04/08 04:59:53;;;;;;;24.20;21.77;;;;;;;6.04;100.00;102552.66;5012552;28;20428;-45
2023/04/08 05:02:20;;;;;;;23.43;19.13;;;;;;;6.03;100.00;102560.75;5011082;28;20429;-48
2023/04/08 05:04:48;;;;;;;23.53;21.20;;;;;;;6.06;100.00;102566.59;5008176;28;20473;-49
2023/04/08 05:07:16;;;;;;;22.30;20.00;;;;;;;6.07;100.00;102564.81;5012475;28;20449;-51
2023/04/08 05:09:45;;;;;;;22.83;20.73;;;;;;;6.10;100.00;102559.28;5012629;28;20807;-47
2023/04/08 05:12:13;;;;;;;22.10;19.83;;;;;;;6.18;100.00;102567.47;5012399;28;20439;-48
2023/04/08 05:14:41;;;;;;;21.50;19.50;;;;;;;6.17;100.00;102571.06;5011900;28;20461;-45
2023/04/08 05:17:08;;;;;;;23.33;20.90;;;;;;;6.19;100.00;102569.13;5012510;28;20456;-46
2023/04/08 05:19:36;;;;;;;23.00;20.90;;;;;;;6.18;100.00;102569.25;5012256;28;20851;-49
2023/04/08 05:22:04;;;;;;;22.43;20.37;;;;;;;6.16;100.00;102579.97;5010254;28;20495;-45
2023/04/08 05:24:31;;;;;;;24.00;21.60;;;;;;;6.15;100.00;102577.44;5008491;28;20468;-44
2023/04/08 05:27:01;;;;;;;21.57;19.53;;;;;;;6.12;100.00;102584.66;5009108;28;20476;-47
2023/04/08 05:29:29;;;;;;;22.37;20.37;;;;;;;6.11;100.00;102579.50;5011007;28;20433;-51
2023/04/08 05:31:57;;;;;;;20.57;18.63;;;;;;;6.08;100.00;102579.75;5011236;28;20895;-46
2023/04/08 05:34:24;;;;;;;21.30;19.40;;;;;;;6.08;100.00;102577.94;5008618;28;20471;-48
2023/04/08 05:36:52;;;;;;;22.43;20.20;;;;;;;6.13;100.00;102586.34;5010677;28;20456;-47
2023/04/08 05:39:20;;;;;;;22.00;19.80;;;;;;;6.18;100.00;102585.16;5010677;28;20953;-46
2023/04/08 05:41:47;;;;;;;23.03;20.03;;;;;;;6.23;100.00;102591.75;5011117;28;20433;-46
2023/04/08 05:44:17;;;;;;;24.40;22.00;;;;;;;6.09;100.00;102586.75;5010422;28;20433;-50
2023/04/08 05:46:45;;;;;;;22.97;20.77;;;;;;;6.09;100.00;102579.59;4991505;28;20890;-48
2023/04/08 05:49:12;;;;;;;23.57;21.17;;;;;;;6.11;100.00;102595.41;4990984;28;20442;-48
2023/04/08 05:51:40;;;;;;;25.43;22.57;;;;;;;6.12;100.00;102599.75;4991298;28;20438;-48
2023/04/08 05:54:08;;;;;;;25.20;22.50;;;;;;;6.10;100.00;102597.19;4991101;28;20500;-53
2023/04/08 05:56:35;;;;;;;23.10;20.70;;;;;;;6.13;100.00;102590.81;4985058;28;20469;-48
2023/04/08 05:59:03;;;;;;;23.40;21.00;;;;;;;6.10;100.00;102601.66;4990804;28;20544;-50
2023/04/08 06:01:32;;;;;;;25.20;22.77;;;;;;;6.09;100.00;102597.34;4991100;28;20438;-47
2023/04/08 06:04:00;;;;;;;22.43;20.10;;;;;;;6.16;100.00;102608.25;4993156;28;20445;-48
2023/04/08 06:06:28;;;;;;;24.67;22.17;;;;;;;6.18;100.00;102607.19;5004639;28;20524;-47
2023/04/08 06:08:56;;;;;;;24.10;20.73;;;;;;;6.20;100.00;102609.72;5009799;28;20433;-49
2023/04/08 06:11:24;;;;;;;20.87;18.80;;;;;;;6.19;100.00;102615.97;5009898;28;20441;-46
2023/04/08 06:13:51;;;;;;;20.80;18.80;;;;;;;6.15;100.00;102623.34;5009741;28;21181;-46
2023/04/08 06:16:19;;;;;;;21.27;19.20;;;;;;;6.02;100.00;102626.09;5004244;28;20466;-46
2023/04/08 06:18:49;;;;;;;22.63;20.47;;;;;;;6.03;100.00;102616.38;5009245;28;20491;-47
2023/04/08 06:21:17;;;;;;;20.17;18.07;;;;;;;6.01;100.00;102619.13;5009987;28;20440;-45
2023/04/08 06:23:45;;;;;;;21.00;18.80;;;;;;;6.03;100.00;102632.25;5009782;28;20429;-44
2023/04/08 06:26:13;;;;;;;20.50;18.70;;;;;;;6.03;100.00;102621.66;5008895;28;20468;-45
2023/04/08 06:28:40;;;;;;;20.67;18.87;;;;;;;6.19;100.00;102619.44;5009556;28;20453;-47
2023/04/08 06:31:08;;;;;;;19.00;17.40;;;;;;;6.21;100.00;102628.16;5009817;28;20429;-44
2023/04/08 06:33:36;;;;;;;18.50;17.00;;;;;;;6.33;100.00;102626.31;5009291;28;20444;-44
2023/04/08 06:36:06;;;;;;;19.80;17.33;;;;;;;6.59;100.00;102623.25;5009049;28;20421;-46
2023/04/08 06:38:35;;;;;;;18.20;16.47;;;;;;;6.67;100.00;102628.75;5009836;28;20485;-45
2023/04/08 06:41:03;;;;;;;19.20;17.47;;;;;;;6.69;100.00;102632.09;5010087;28;20440;-47
2023/04/08 06:43:31;;;;;;;18.93;17.33;;;;;;;6.80;100.00;102623.28;5010218;28;20491;-45
2023/04/08 06:45:58;;;;;;;18.97;17.53;;;;;;;6.84;100.00;102624.69;5006445;28;20484;-47
2023/04/08 06:48:29;;;;;;;19.57;17.70;;;;;;;6.97;100.00;102630.69;5011479;28;20452;-45
2023/04/08 06:50:57;;;;;;;19.23;17.63;;;;;;;7.18;100.00;102630.69;5013194;28;20453;-45
2023/04/08 06:53:28;;;;;;;18.00;16.40;;;;;;;7.28;100.00;102638.75;5012999;28;20485;-45
2023/04/08 06:55:55;;;;;;;17.83;16.37;;;;;;;7.27;100.00;102639.69;5005935;28;20426;-47
2023/04/08 06:58:23;;;;;;;17.33;15.93;;;;;;;7.41;100.00;102642.88;5004861;28;20448;-46
2023/04/08 07:00:51;;;;;;;18.90;17.37;;;;;;;7.44;100.00;102653.22;5002913;28;20472;-46
2023/04/08 07:03:19;;;;;;;16.10;14.80;;;;;;;7.58;100.00;102647.59;5001353;28;20430;-44
2023/04/08 07:05:47;;;;;;;15.97;14.83;;;;;;;7.63;100.00;102657.81;5005242;28;20554;-46
2023/04/08 07:08:15;;;;;;;17.03;15.83;;;;;;;7.75;100.00;102656.78;5012369;28;21014;-44
2023/04/08 07:10:44;;;;;;;18.13;16.57;;;;;;;7.62;100.00;102656.13;5012424;28;20527;-45
2023/04/08 07:13:12;;;;;;;18.33;16.90;;;;;;;7.73;100.00;102651.59;5012689;28;20428;-48
2023/04/08 07:15:40;;;;;;;16.43;14.93;;;;;;;7.66;100.00;102654.91;5012834;28;20515;-44
2023/04/08 07:18:08;;;;;;;18.93;16.93;;;;;;;7.79;100.00;102661.69;5011358;28;20501;-46
2023/04/08 07:20:37;;;;;;;17.43;16.13;;;;;;;7.80;100.00;102662.53;5012754;28;20432;-44
2023/04/08 07:23:05;;;;;;;17.00;15.60;;;;;;;7.82;100.00;102656.09;4994372;28;21050;-44
2023/04/08 07:25:33;;;;;;;17.50;16.10;;;;;;;7.82;100.00;102659.75;4992650;28;20473;-45
2023/04/08 07:28:03;;;;;;;16.70;15.50;;;;;;;7.76;100.00;102658.47;4992709;28;20474;-44
2023/04/08 07:30:30;;;;;;;18.00;16.60;;;;;;;7.96;100.00;102667.34;5004836;28;20439;-44
2023/04/08 07:32:58;;;;;;;17.67;16.20;;;;;;;8.03;100.00;102657.91;5012704;28;20441;-45
2023/04/08 07:35:28;;;;;;;16.13;14.93;;;;;;;8.18;100.00;102668.00;5013223;28;20426;-47
2023/04/08 07:37:56;;;;;;;18.17;16.57;;;;;;;8.25;100.00;102668.31;5008985;28;20531;-44
2023/04/08 07:40:24;;;;;;;16.37;15.17;;;;;;;8.38;100.00;102657.47;5014114;28;20788;-44
2023/04/08 07:42:52;;;;;;;16.93;15.63;;;;;;;8.47;100.00;102669.97;5014017;28;20491;-45
2023/04/08 07:45:21;;;;;;;18.30;16.53;;;;;;;8.53;100.00;102670.25;5013800;28;20449;-46
2023/04/08 07:47:48;;;;;;;17.87;16.03;;;;;;;8.57;100.00;102662.84;5008521;28;20484;-46
2023/04/08 07:50:16;;;;;;;17.00;15.80;;;;;;;8.53;100.00;102666.75;5013768;28;20445;-48
2023/04/08 07:52:44;;;;;;;17.47;15.90;;;;;;;8.65;100.00;102665.66;5013439;28;20440;-47
2023/04/08 07:55:11;;;;;;;17.23;15.93;;;;;;;8.75;100.00;102671.84;5013814;28;21001;-48
2023/04/08 07:57:39;;;;;;;16.33;14.63;;;;;;;8.72;100.00;102666.81;5013505;28;20468;-44
2023/04/08 08:00:08;;;;;;;17.27;15.83;;;;;;;8.86;100.00;102667.25;5013698;28;20521;-44
2023/04/08 08:02:37;;;;;;;17.97;16.63;;;;;;;8.85;100.00;102664.72;5013290;28;20435;-47
2023/04/08 08:05:06;;;;;;;20.70;18.90;;;;;;;8.93;100.00;102670.16;5013359;28;20483;-46
2023/04/08 08:07:34;;;;;;;23.80;20.83;;;;;;;8.90;100.00;102675.75;5012715;28;20472;-46
2023/04/08 08:10:02;;;;;;;18.47;17.00;;;;;;;9.06;100.00;102668.09;5013050;28;20432;-46
2023/04/08 08:12:30;;;;;;;17.97;16.43;;;;;;;9.13;100.00;102676.34;5012862;28;20425;-45
2023/04/08 08:14:58;;;;;;;20.53;18.77;;;;;;;9.12;100.00;102680.84;5013089;28;20799;-50
2023/04/08 08:17:28;;;;;;;22.37;20.13;;;;;;;9.08;100.00;102682.06;5010378;28;20472;-47
2023/04/08 08:19:57;;;;;;;18.60;17.00;;;;;;;8.92;100.00;102673.81;5013431;28;20433;-48
2023/04/08 08:22:25;;;;;;;19.93;18.23;;;;;;;8.87;100.00;102676.03;5012931;28;20437;-50
2023/04/08 08:24:56;;;;;;;20.07;18.37;;;;;;;8.88;100.00;102688.38;5013039;28;20433;-44
2023/04/08 08:27:24;;;;;;;16.83;15.57;;;;;;;9.06;100.00;102678.72;5012585;28;20461;-46
2023/04/08 08:29:52;;;;;;;18.57;17.00;;;;;;;9.25;100.00;102685.88;5012916;28;20449;-44
2023/04/08 08:32:19;;;;;;;16.80;15.40;;;;;;;9.62;100.00;102685.97;5012460;28;20456;-47
2023/04/08 08:34:47;;;;;;;19.13;17.53;;;;;;;9.93;100.00;102677.63;5013011;28;20432;-49
2023/04/08 08:37:16;;;;;;;16.53;15.20;;;;;;;9.85;100.00;102684.66;5012064;28;20453;-46
2023/04/08 08:39:44;;;;;;;19.10;17.50;;;;;;;9.81;100.00;102678.78;5012738;28;20524;-45
2023/04/08 08:42:20;;;;;;;19.90;18.03;;;;;;;9.73;100.00;102691.16;5012444;28;20958;-46
2023/04/08 08:44:48;;;;;;;18.67;17.07;;;;;;;9.79;100.00;102690.56;5012503;28;20425;-46
2023/04/08 08:47:15;;;;;;;19.40;17.70;;;;;;;9.61;100.00;102701.13;5009088;28;20515;-45
2023/04/08 08:49:44;;;;;;;17.67;16.17;;;;;;;9.77;100.00;102695.19;5012718;28;20479;-49
2023/04/08 08:52:17;;;;;;;19.30;17.70;;;;;;;9.59;100.00;102691.59;5012588;28;20437;-46
2023/04/08 08:54:46;;;;;;;18.70;17.20;;;;;;;9.63;100.00;102700.97;5012051;28;20524;-43
2023/04/08 08:57:18;;;;;;;15.10;13.93;;;;;;;9.73;100.00;102696.47;5011964;28;20449;-47
2023/04/08 08:59:46;;;;;;;15.20;13.90;;;;;;;9.66;100.00;102693.53;5010798;28;20457;-46
2023/04/08 09:02:26;;;;;;;14.97;13.87;;;;;;;9.83;100.00;102698.13;5008953;28;20445;-43
2023/04/08 09:04:58;;;;;;;17.03;15.50;;;;;;;9.70;100.00;102694.09;5011286;28;20495;-44
2023/04/08 09:07:29;;;;;;;14.60;13.50;;;;;;;9.78;100.00;102704.88;5011328;28;20464;-49
2023/04/08 09:09:59;;;;;;;15.70;14.57;;;;;;;9.76;100.00;102691.72;5012821;28;20433;-51
2023/04/08 09:12:28;;;;;;;14.67;13.43;;;;;;;9.77;100.00;102701.34;5011928;28;20447;-46
2023/04/08 09:15:04;;;;;;;14.90;13.70;;;;;;;9.81;100.00;102697.44;5012618;28;20457;-44
2023/04/08 09:17:33;;;;;;;15.67;14.20;;;;;;;9.75;100.00;102710.47;5011814;28;20464;-45
2023/04/08 09:20:08;;;;;;;16.27;14.87;;;;;;;9.91;100.00;102702.75;5012207;28;20435;-43
2023/04/08 09:22:55;;;;;;;15.87;14.50;;;;;;;10.13;100.00;102705.06;5012213;28;20431;-44
2023/04/08 09:25:24;;;;;;;16.27;14.70;;;;;;;10.25;100.00;102698.56;5012409;28;20435;-44
2023/04/08 09:27:53;;;;;;;16.07;14.77;;;;;;;10.30;100.00;102701.66;5011632;28;20839;-45
2023/04/08 09:30:23;;;;;;;16.03;14.73;;;;;;;10.29;100.00;102721.28;5012002;28;20492;-47
2023/04/08 09:32:52;;;;;;;15.80;14.40;;;;;;;10.09;100.00;102718.81;5010864;28;20444;-45
2023/04/08 09:35:21;;;;;;;15.13;13.70;;;;;;;10.21;100.00;102717.69;5011752;28;20428;-44
2023/04/08 09:37:51;;;;;;;17.40;15.93;;;;;;;10.34;100.00;102731.50;5011531;28;20469;-45
2023/04/08 09:40:19;;;;;;;15.80;14.40;;;;;;;10.37;100.00;102715.22;5012033;28;20429;-46
2023/04/08 09:42:49;;;;;;;14.83;13.67;;;;;;;10.40;100.00;102723.78;5011856;28;20437;-44
2023/04/08 09:45:18;;;;;;;14.97;13.77;;;;;;;10.26;100.00;102724.25;5012089;28;20440;-47
2023/04/08 09:48:10;;;;;;;15.53;14.13;;;;;;;10.21;100.00;102729.19;5009291;28;20481;-43
2023/04/08 09:50:43;;;;;;;17.13;15.63;;;;;;;10.16;100.00;102726.09;5011988;28;20448;-45
2023/04/08 09:53:15;;;;;;;15.80;14.40;;;;;;;10.06;100.00;102735.94;5011821;28;20441;-45
2023/04/08 09:55:44;;;;;;;15.93;14.57;;;;;;;10.01;100.00;102731.03;5011927;28;20429;-43
2023/04/08 09:58:16;;;;;;;17.33;15.80;;;;;;;10.17;100.00;102737.63;5011441;28;20469;-43
2023/04/08 10:00:50;;;;;;;15.47;14.27;;;;;;;10.06;100.00;102735.09;5012154;28;20435;-44
2023/04/08 10:03:29;;;;;;;16.33;14.67;;;;;;;10.31;100.00;102742.47;5011684;28;20487;-47
2023/04/08 10:06:01;;;;;;;16.00;14.70;;;;;;;10.36;100.00;102746.38;5011852;28;21136;-45
2023/04/08 10:08:31;;;;;;;13.50;12.50;;;;;;;10.31;100.00;102745.97;5011040;28;21067;-44
2023/04/08 10:10:59;;;;;;;16.37;15.00;;;;;;;10.64;100.00;102741.06;5010800;28;20433;-43
2023/04/08 10:13:28;;;;;;;15.77;14.43;;;;;;;10.55;100.00;102737.44;4990188;28;20430;-45
2023/04/08 10:16:24;;;;;;;17.00;15.40;;;;;;;10.64;100.00;102743.72;4992295;28;20528;-45
2023/04/08 10:18:54;;;;;;;16.40;14.80;;;;;;;10.77;100.00;102731.72;4988964;28;21111;-47
2023/04/08 10:21:32;;;;;;;16.70;15.23;;;;;;;11.08;100.00;102740.22;4992070;28;20525;-46
2023/04/08 10:24:05;;;;;;;15.63;14.30;;;;;;;11.02;100.00;102727.50;4994279;28;20437;-45
2023/04/08 10:26:35;;;;;;;14.20;13.10;;;;;;;11.18;100.00;102732.13;4996114;28;20438;-46
2023/04/08 10:29:43;;;;;;;15.13;13.93;;;;;;;10.96;100.00;102722.75;4995466;28;20470;-45
2023/04/08 10:32:28;;;;;;;13.97;12.90;;;;;;;10.81;100.00;102724.28;4995748;28;20533;-44
2023/04/08 10:34:56;;;;;;;13.87;12.80;;;;;;;10.79;100.00;102721.72;4995708;28;20433;-44
2023/04/08 10:37:24;;;;;;;12.97;11.93;;;;;;;11.05;100.00;102724.53;4993923;28;20469;-45
2023/04/08 10:39:55;;;;;;;13.00;11.80;;;;;;;11.01;100.00;102729.31;4996065;28;20437;-43
2023/04/08 10:42:28;;;;;;;13.37;12.07;;;;;;;11.14;100.00;102720.09;5014393;28;20927;-43
2023/04/08 10:45:00;;;;;;;13.30;12.40;;;;;;;11.27;100.00;102713.38;5015132;28;20464;-43
2023/04/08 10:47:28;;;;;;;13.03;12.03;;;;;;;11.08;100.00;102721.53;5014491;28;20867;-46
2023/04/08 10:49:56;;;;;;;13.53;12.33;;;;;;;11.11;100.00;102718.56;5014812;28;20531;-48
2023/04/08 10:52:26;;;;;;;13.10;12.00;;;;;;;10.93;100.00;102715.88;5014338;28;21148;-44
2023/04/08 10:54:55;;;;;;;13.97;12.57;;;;;;;11.09;100.00;102724.06;5015202;28;20777;-43
2023/04/08 10:57:26;;;;;;;12.83;11.83;;;;;;;11.27;100.00;102723.22;5014454;28;20468;-46
2023/04/08 10:59:53;;;;;;;12.53;11.63;;;;;;;11.27;100.00;102723.22;5014900;28;20440;-47
2023/04/08 11:02:21;;;;;;;14.17;13.00;;;;;;;11.33;100.00;102720.78;5014688;28;20448;-44
2023/04/08 11:04:49;;;;;;;12.97;12.03;;;;;;;11.55;100.00;102717.63;5014805;28;20472;-46
2023/04/08 11:07:20;;;;;;;13.97;12.60;;;;;;;11.54;100.00;102710.59;5013915;28;20487;-45
2023/04/08 11:09:48;;;;;;;14.57;13.37;;;;;;;11.64;100.00;102722.06;5014622;28;20436;-46
2023/04/08 11:12:18;;;;;;;14.27;13.07;;;;;;;11.84;100.00;102722.72;5014581;28;20834;-44
2023/04/08 11:14:47;;;;;;;14.40;13.30;;;;;;;11.86;100.00;102711.84;5014270;28;20927;-46
2023/04/08 11:17:16;;;;;;;14.00;12.90;;;;;;;12.01;100.00;102710.28;5012345;28;20457;-45
2023/04/08 11:19:44;;;;;;;15.27;12.93;;;;;;;12.30;100.00;102716.16;5014424;28;20815;-44